sensor_id;sensor_type;location;lat;lon;timestamp;P1;durP1;ratioP1;P2;durP2;ratioP2
3757;SDS011;1894;51.038;13.692;2023-06-22T00:00:11;16.00;;;12.20;;
3757;SDS011;1894;51.038;13.692;2023-06-22T00:02:38;14.30;;;11.13;;
3757;SDS011;1894;51.038;13.692;2023-06-22T00:05:06;12.70;;;11.40;;
3757;SDS011;1894;51.038;13.692;2023-06-22T00:07:33;14.77;;;12.80;;
3757;SDS011;1894;51.038;13.692;2023-06-22T00:10:00;12.73;;;11.43;;
3757;SDS011;1894;51.038;13.692;2023-06-22T00:12:27;16.93;;;12.17;;
3757;SDS011;1894;51.038;13.692;2023-06-22T00:14:54;13.60;;;11.20;;
3757;SDS011;1894;51.038;13.692;2023-06-22T00:17:21;13.97;;;11.00;;
3757;SDS011;1894;51.038;13.692;2023-06-22T00:19:48;12.33;;;11.00;;
3757;SDS011;1894;51.038;13.692;2023-06-22T00:22:19;13.90;;;10.80;;
3757;SDS011;1894;51.038;13.692;2023-06-22T00:24:55;17.30;;;11.80;;
3757;SDS011;1894;51.038;13.692;2023-06-22T00:27:22;18.40;;;13.23;;
3757;SDS011;1894;51.038;13.692;2023-06-22T00:29:49;12.40;;;11.10;;
3757;SDS011;1894;51.038;13.692;2023-06-22T00:32:16;11.80;;;10.40;;
3757;SDS011;1894;51.038;13.692;2023-06-22T00:34:46;11.67;;;10.10;;
3757;SDS011;1894;51.038;13.692;2023-06-22T00:37:13;15.23;;;10.80;;
3757;SDS011;1894;51.038;13.692;2023-06-22T00:39:40;14.40;;;12.00;;
3757;SDS011;1894;51.038;13.692;2023-06-22T00:42:08;14.53;;;11.27;;
3757;SDS011;1894;51.038;13.692;2023-06-22T00:44:35;13.43;;;12.13;;
3757;SDS011;1894;51.038;13.692;2023-06-22T00:47:03;12.07;;;10.83;;
3757;SDS011;1894;51.038;13.692;2023-06-22T00:49:30;13.10;;;11.70;;
3757;SDS011;1894;51.038;13.692;2023-06-22T00:51:57;11.47;;;10.33;;
3757;SDS011;1894;51.038;13.692;2023-06-22T00:54:26;11.03;;;9.93;;
3757;SDS011;1894;51.038;13.692;2023-06-22T00:56:55;11.63;;;10.40;;
3757;SDS011;1894;51.038;13.692;2023-06-22T00:59:24;13.47;;;10.40;;
3757;SDS011;1894;51.038;13.692;2023-06-22T01:01:52;13.83;;;11.50;;
3757;SDS011;1894;51.038;13.692;2023-06-22T01:04:19;14.23;;;11.50;;
3757;SDS011;1894;51.038;13.692;2023-06-22T01:06:55;12.37;;;10.67;;
3757;SDS011;1894;51.038;13.692;2023-06-22T01:09:46;14.50;;;11.50;;
3757;SDS011;1894;51.038;13.692;2023-06-22T01:12:25;15.07;;;11.00;;
3757;SDS011;1894;51.038;13.692;2023-06-22T01:15:04;13.53;;;10.77;;
3757;SDS011;1894;51.038;13.692;2023-06-22T01:17:45;12.50;;;11.17;;
3757;SDS011;1894;51.038;13.692;2023-06-22T01:20:16;13.43;;;10.20;;
3757;SDS011;1894;51.038;13.692;2023-06-22T01:23:33;13.10;;;11.80;;
3757;SDS011;1894;51.038;13.692;2023-06-22T01:25:45;13.17;;;10.70;;
3757;SDS011;1894;51.038;13.692;2023-06-22T01:28:20;13.83;;;12.30;;
3757;SDS011;1894;51.038;13.692;2023-06-22T01:30:57;18.60;;;12.33;;
3757;SDS011;1894;51.038;13.692;2023-06-22T01:33:35;13.40;;;11.27;;
3757;SDS011;1894;51.038;13.692;2023-06-22T01:36:05;11.03;;;10.03;;
3757;SDS011;1894;51.038;13.692;2023-06-22T01:38:33;17.43;;;11.37;;
3757;SDS011;1894;51.038;13.692;2023-06-22T01:41:02;14.33;;;10.90;;
3757;SDS011;1894;51.038;13.692;2023-06-22T01:43:30;17.60;;;12.33;;
3757;SDS011;1894;51.038;13.692;2023-06-22T01:45:59;14.10;;;12.70;;
3757;SDS011;1894;51.038;13.692;2023-06-22T01:48:27;15.30;;;11.50;;
3757;SDS011;1894;51.038;13.692;2023-06-22T01:50:55;15.20;;;13.17;;
3757;SDS011;1894;51.038;13.692;2023-06-22T01:53:22;17.30;;;12.10;;
3757;SDS011;1894;51.038;13.692;2023-06-22T01:55:51;16.53;;;12.97;;
3757;SDS011;1894;51.038;13.692;2023-06-22T01:58:19;16.90;;;15.10;;
3757;SDS011;1894;51.038;13.692;2023-06-22T02:00:57;17.57;;;14.70;;
3757;SDS011;1894;51.038;13.692;2023-06-22T02:03:31;20.63;;;14.87;;
3757;SDS011;1894;51.038;13.692;2023-06-22T02:06:05;18.47;;;14.83;;
3757;SDS011;1894;51.038;13.692;2023-06-22T02:08:40;15.10;;;13.50;;
3757;SDS011;1894;51.038;13.692;2023-06-22T02:11:10;19.23;;;15.93;;
3757;SDS011;1894;51.038;13.692;2023-06-22T02:13:39;15.40;;;13.67;;
3757;SDS011;1894;51.038;13.692;2023-06-22T02:16:10;17.60;;;13.40;;
3757;SDS011;1894;51.038;13.692;2023-06-22T02:18:45;15.40;;;13.30;;
3757;SDS011;1894;51.038;13.692;2023-06-22T02:21:19;14.50;;;12.97;;
3757;SDS011;1894;51.038;13.692;2023-06-22T02:23:46;14.10;;;12.60;;
3757;SDS011;1894;51.038;13.692;2023-06-22T02:26:16;17.33;;;13.03;;
3757;SDS011;1894;51.038;13.692;2023-06-22T02:28:43;26.37;;;13.30;;
3757;SDS011;1894;51.038;13.692;2023-06-22T02:31:12;16.53;;;12.77;;
3757;SDS011;1894;51.038;13.692;2023-06-22T02:33:39;15.53;;;11.90;;
3757;SDS011;1894;51.038;13.692;2023-06-22T02:36:06;16.00;;;12.10;;
3757;SDS011;1894;51.038;13.692;2023-06-22T02:38:35;15.53;;;12.50;;
3757;SDS011;1894;51.038;13.692;2023-06-22T02:41:02;13.97;;;11.40;;
3757;SDS011;1894;51.038;13.692;2023-06-22T02:43:29;14.30;;;12.80;;
3757;SDS011;1894;51.038;13.692;2023-06-22T02:45:56;19.57;;;12.07;;
3757;SDS011;1894;51.038;13.692;2023-06-22T02:48:23;15.30;;;13.23;;
3757;SDS011;1894;51.038;13.692;2023-06-22T02:50:52;17.43;;;13.33;;
3757;SDS011;1894;51.038;13.692;2023-06-22T02:53:19;19.20;;;14.47;;
3757;SDS011;1894;51.038;13.692;2023-06-22T02:55:47;15.33;;;13.77;;
3757;SDS011;1894;51.038;13.692;2023-06-22T02:58:14;21.80;;;13.27;;
3757;SDS011;1894;51.038;13.692;2023-06-22T03:00:41;18.73;;;13.00;;
3757;SDS011;1894;51.038;13.692;2023-06-22T03:03:08;19.80;;;13.13;;
3757;SDS011;1894;51.038;13.692;2023-06-22T03:05:37;13.47;;;12.07;;
3757;SDS011;1894;51.038;13.692;2023-06-22T03:08:07;15.00;;;12.67;;
3757;SDS011;1894;51.038;13.692;2023-06-22T03:10:34;16.50;;;13.73;;
3757;SDS011;1894;51.038;13.692;2023-06-22T03:13:02;13.27;;;11.90;;
3757;SDS011;1894;51.038;13.692;2023-06-22T03:15:29;17.10;;;13.20;;
3757;SDS011;1894;51.038;13.692;2023-06-22T03:18:00;18.97;;;15.87;;
3757;SDS011;1894;51.038;13.692;2023-06-22T03:20:28;25.00;;;14.90;;
3757;SDS011;1894;51.038;13.692;2023-06-22T03:23:00;20.30;;;14.80;;
3757;SDS011;1894;51.038;13.692;2023-06-22T03:25:27;18.33;;;14.00;;
3757;SDS011;1894;51.038;13.692;2023-06-22T03:27:54;17.63;;;13.83;;
3757;SDS011;1894;51.038;13.692;2023-06-22T03:30:22;22.43;;;15.33;;
3757;SDS011;1894;51.038;13.692;2023-06-22T03:32:56;21.10;;;14.00;;
3757;SDS011;1894;51.038;13.692;2023-06-22T03:35:25;18.43;;;13.97;;
3757;SDS011;1894;51.038;13.692;2023-06-22T03:37:52;15.83;;;13.50;;
3757;SDS011;1894;51.038;13.692;2023-06-22T03:40:22;15.30;;;13.70;;
3757;SDS011;1894;51.038;13.692;2023-06-22T03:42:49;14.53;;;13.00;;
3757;SDS011;1894;51.038;13.692;2023-06-22T03:45:22;17.10;;;11.93;;
3757;SDS011;1894;51.038;13.692;2023-06-22T03:47:50;15.00;;;12.67;;
3757;SDS011;1894;51.038;13.692;2023-06-22T03:50:32;21.10;;;12.90;;
3757;SDS011;1894;51.038;13.692;2023-06-22T03:53:16;18.47;;;14.20;;
3757;SDS011;1894;51.038;13.692;2023-06-22T03:55:54;18.83;;;13.53;;
3757;SDS011;1894;51.038;13.692;2023-06-22T03:58:48;14.10;;;12.60;;
3757;SDS011;1894;51.038;13.692;2023-06-22T04:04:40;19.50;;;14.33;;
3757;SDS011;1894;51.038;13.692;2023-06-22T04:07:09;23.00;;;13.23;;
3757;SDS011;1894;51.038;13.692;2023-06-22T04:09:42;15.83;;;13.53;;
3757;SDS011;1894;51.038;13.692;2023-06-22T04:12:15;17.73;;;13.73;;
3757;SDS011;1894;51.038;13.692;2023-06-22T04:14:46;14.80;;;12.20;;
3757;SDS011;1894;51.038;13.692;2023-06-22T04:17:19;16.53;;;12.27;;
3757;SDS011;1894;51.038;13.692;2023-06-22T04:20:01;17.60;;;14.40;;
3757;SDS011;1894;51.038;13.692;2023-06-22T04:25:46;16.33;;;12.20;;
3757;SDS011;1894;51.038;13.692;2023-06-22T04:28:54;14.77;;;12.90;;
3757;SDS011;1894;51.038;13.692;2023-06-22T04:31:22;14.33;;;12.83;;
3757;SDS011;1894;51.038;13.692;2023-06-22T04:34:13;12.57;;;11.23;;
3757;SDS011;1894;51.038;13.692;2023-06-22T04:37:03;22.10;;;11.90;;
3757;SDS011;1894;51.038;13.692;2023-06-22T04:39:34;16.43;;;13.60;;
3757;SDS011;1894;51.038;13.692;2023-06-22T04:42:05;16.50;;;12.00;;
3757;SDS011;1894;51.038;13.692;2023-06-22T04:44:32;13.20;;;11.70;;
3757;SDS011;1894;51.038;13.692;2023-06-22T04:47:01;15.57;;;12.07;;
3757;SDS011;1894;51.038;13.692;2023-06-22T04:49:30;16.80;;;11.37;;
3757;SDS011;1894;51.038;13.692;2023-06-22T04:52:09;12.70;;;11.40;;
3757;SDS011;1894;51.038;13.692;2023-06-22T04:54:38;20.43;;;11.93;;
3757;SDS011;1894;51.038;13.692;2023-06-22T04:57:15;16.53;;;13.30;;
3757;SDS011;1894;51.038;13.692;2023-06-22T04:59:44;12.57;;;11.10;;
3757;SDS011;1894;51.038;13.692;2023-06-22T05:02:12;13.97;;;12.60;;
3757;SDS011;1894;51.038;13.692;2023-06-22T05:04:39;15.33;;;10.97;;
3757;SDS011;1894;51.038;13.692;2023-06-22T05:07:06;13.40;;;12.00;;
3757;SDS011;1894;51.038;13.692;2023-06-22T05:09:33;12.90;;;11.50;;
3757;SDS011;1894;51.038;13.692;2023-06-22T05:12:01;15.73;;;12.10;;
3757;SDS011;1894;51.038;13.692;2023-06-22T05:14:29;16.97;;;11.30;;
3757;SDS011;1894;51.038;13.692;2023-06-22T05:16:56;18.93;;;12.90;;
3757;SDS011;1894;51.038;13.692;2023-06-22T05:19:30;14.90;;;12.90;;
3757;SDS011;1894;51.038;13.692;2023-06-22T05:22:01;14.67;;;12.10;;
3757;SDS011;1894;51.038;13.692;2023-06-22T05:24:28;14.27;;;12.20;;
3757;SDS011;1894;51.038;13.692;2023-06-22T05:26:55;15.53;;;13.27;;
3757;SDS011;1894;51.038;13.692;2023-06-22T05:29:22;15.43;;;11.10;;
3757;SDS011;1894;51.038;13.692;2023-06-22T05:31:49;12.43;;;11.20;;
3757;SDS011;1894;51.038;13.692;2023-06-22T05:34:16;12.17;;;10.37;;
3757;SDS011;1894;51.038;13.692;2023-06-22T05:36:43;14.23;;;12.73;;
3757;SDS011;1894;51.038;13.692;2023-06-22T05:39:11;19.60;;;11.80;;
3757;SDS011;1894;51.038;13.692;2023-06-22T05:41:40;16.83;;;11.37;;
3757;SDS011;1894;51.038;13.692;2023-06-22T05:44:07;17.53;;;12.03;;
3757;SDS011;1894;51.038;13.692;2023-06-22T05:46:35;15.77;;;11.13;;
3757;SDS011;1894;51.038;13.692;2023-06-22T05:49:02;39.43;;;11.77;;
3757;SDS011;1894;51.038;13.692;2023-06-22T05:51:29;14.13;;;11.93;;
3757;SDS011;1894;51.038;13.692;2023-06-22T05:53:56;23.33;;;12.27;;
3757;SDS011;1894;51.038;13.692;2023-06-22T05:56:23;16.43;;;12.00;;
3757;SDS011;1894;51.038;13.692;2023-06-22T05:58:50;15.87;;;10.73;;
3757;SDS011;1894;51.038;13.692;2023-06-22T06:01:17;12.83;;;10.90;;
3757;SDS011;1894;51.038;13.692;2023-06-22T06:03:44;17.27;;;10.90;;
3757;SDS011;1894;51.038;13.692;2023-06-22T06:06:22;13.10;;;10.80;;
3757;SDS011;1894;51.038;13.692;2023-06-22T06:08:54;14.00;;;11.83;;
3757;SDS011;1894;51.038;13.692;2023-06-22T06:11:22;12.93;;;11.00;;
3757;SDS011;1894;51.038;13.692;2023-06-22T06:13:49;11.50;;;10.40;;
3757;SDS011;1894;51.038;13.692;2023-06-22T06:16:16;13.53;;;10.27;;
3757;SDS011;1894;51.038;13.692;2023-06-22T06:18:43;11.10;;;10.10;;
3757;SDS011;1894;51.038;13.692;2023-06-22T06:21:10;14.77;;;9.90;;
3757;SDS011;1894;51.038;13.692;2023-06-22T06:23:37;12.90;;;11.07;;
3757;SDS011;1894;51.038;13.692;2023-06-22T06:26:04;12.43;;;11.20;;
3757;SDS011;1894;51.038;13.692;2023-06-22T06:28:34;12.20;;;10.63;;
3757;SDS011;1894;51.038;13.692;2023-06-22T06:31:01;12.40;;;9.97;;
3757;SDS011;1894;51.038;13.692;2023-06-22T06:33:28;14.10;;;9.77;;
3757;SDS011;1894;51.038;13.692;2023-06-22T06:35:58;9.70;;;8.80;;
3757;SDS011;1894;51.038;13.692;2023-06-22T06:38:28;11.30;;;10.30;;
3757;SDS011;1894;51.038;13.692;2023-06-22T06:41:00;12.50;;;9.90;;
3757;SDS011;1894;51.038;13.692;2023-06-22T06:43:27;13.37;;;10.53;;
3757;SDS011;1894;51.038;13.692;2023-06-22T06:45:54;17.97;;;10.33;;
3757;SDS011;1894;51.038;13.692;2023-06-22T06:48:21;10.00;;;9.17;;
3757;SDS011;1894;51.038;13.692;2023-06-22T06:50:48;11.10;;;8.90;;
3757;SDS011;1894;51.038;13.692;2023-06-22T06:53:16;11.50;;;10.30;;
3757;SDS011;1894;51.038;13.692;2023-06-22T06:55:43;13.40;;;9.47;;
3757;SDS011;1894;51.038;13.692;2023-06-22T06:58:12;11.80;;;9.60;;
3757;SDS011;1894;51.038;13.692;2023-06-22T07:00:39;12.13;;;9.10;;
3757;SDS011;1894;51.038;13.692;2023-06-22T07:03:06;10.00;;;8.93;;
3757;SDS011;1894;51.038;13.692;2023-06-22T07:05:34;12.93;;;8.90;;
3757;SDS011;1894;51.038;13.692;2023-06-22T07:08:01;11.83;;;9.60;;
3757;SDS011;1894;51.038;13.692;2023-06-22T07:10:29;12.17;;;9.13;;
3757;SDS011;1894;51.038;13.692;2023-06-22T07:12:56;10.27;;;9.17;;
3757;SDS011;1894;51.038;13.692;2023-06-22T07:15:24;11.03;;;9.30;;
3757;SDS011;1894;51.038;13.692;2023-06-22T07:17:51;11.50;;;10.30;;
3757;SDS011;1894;51.038;13.692;2023-06-22T07:20:18;14.03;;;10.53;;
3757;SDS011;1894;51.038;13.692;2023-06-22T07:22:46;11.03;;;9.63;;
3757;SDS011;1894;51.038;13.692;2023-06-22T07:25:13;10.17;;;9.10;;
3757;SDS011;1894;51.038;13.692;2023-06-22T07:27:46;11.80;;;9.87;;
3757;SDS011;1894;51.038;13.692;2023-06-22T07:30:26;12.17;;;9.63;;
3757;SDS011;1894;51.038;13.692;2023-06-22T07:32:54;10.70;;;9.70;;
3757;SDS011;1894;51.038;13.692;2023-06-22T07:35:21;11.50;;;10.47;;
3757;SDS011;1894;51.038;13.692;2023-06-22T07:37:48;10.10;;;9.20;;
3757;SDS011;1894;51.038;13.692;2023-06-22T07:40:15;11.60;;;9.47;;
3757;SDS011;1894;51.038;13.692;2023-06-22T07:42:42;11.43;;;10.23;;
3757;SDS011;1894;51.038;13.692;2023-06-22T07:45:10;11.07;;;9.10;;
3757;SDS011;1894;51.038;13.692;2023-06-22T07:47:37;10.97;;;9.77;;
3757;SDS011;1894;51.038;13.692;2023-06-22T07:50:05;11.60;;;9.17;;
3757;SDS011;1894;51.038;13.692;2023-06-22T07:52:32;11.07;;;8.90;;
3757;SDS011;1894;51.038;13.692;2023-06-22T07:54:59;10.43;;;9.33;;
3757;SDS011;1894;51.038;13.692;2023-06-22T07:57:26;16.83;;;8.80;;
3757;SDS011;1894;51.038;13.692;2023-06-22T07:59:59;12.00;;;10.80;;
3757;SDS011;1894;51.038;13.692;2023-06-22T08:02:37;9.60;;;8.70;;
3757;SDS011;1894;51.038;13.692;2023-06-22T08:05:05;8.90;;;8.10;;
3757;SDS011;1894;51.038;13.692;2023-06-22T08:07:45;10.37;;;9.27;;
3757;SDS011;1894;51.038;13.692;2023-06-22T08:10:14;9.33;;;8.17;;
3757;SDS011;1894;51.038;13.692;2023-06-22T08:12:41;10.83;;;9.83;;
3757;SDS011;1894;51.038;13.692;2023-06-22T08:15:09;9.23;;;8.47;;
3757;SDS011;1894;51.038;13.692;2023-06-22T08:17:37;9.47;;;8.50;;
3757;SDS011;1894;51.038;13.692;2023-06-22T08:20:05;10.60;;;9.60;;
3757;SDS011;1894;51.038;13.692;2023-06-22T08:22:43;11.37;;;9.37;;
3757;SDS011;1894;51.038;13.692;2023-06-22T08:25:10;11.93;;;8.40;;
3757;SDS011;1894;51.038;13.692;2023-06-22T08:27:37;10.13;;;9.13;;
3757;SDS011;1894;51.038;13.692;2023-06-22T08:30:09;13.00;;;9.13;;
3757;SDS011;1894;51.038;13.692;2023-06-22T08:32:37;8.97;;;8.17;;
3757;SDS011;1894;51.038;13.692;2023-06-22T08:35:04;12.67;;;8.90;;
3757;SDS011;1894;51.038;13.692;2023-06-22T08:37:34;8.43;;;7.73;;
3757;SDS011;1894;51.038;13.692;2023-06-22T08:40:04;20.33;;;8.73;;
3757;SDS011;1894;51.038;13.692;2023-06-22T08:42:35;14.53;;;8.00;;
3757;SDS011;1894;51.038;13.692;2023-06-22T08:45:07;8.90;;;7.97;;
3757;SDS011;1894;51.038;13.692;2023-06-22T08:47:34;12.93;;;7.70;;
3757;SDS011;1894;51.038;13.692;2023-06-22T08:50:02;12.77;;;7.30;;
3757;SDS011;1894;51.038;13.692;2023-06-22T08:52:30;7.50;;;6.90;;
3757;SDS011;1894;51.038;13.692;2023-06-22T08:54:57;8.07;;;7.37;;
3757;SDS011;1894;51.038;13.692;2023-06-22T08:57:25;8.80;;;7.90;;
3757;SDS011;1894;51.038;13.692;2023-06-22T08:59:52;7.87;;;7.03;;
3757;SDS011;1894;51.038;13.692;2023-06-22T09:02:19;7.87;;;7.13;;
3757;SDS011;1894;51.038;13.692;2023-06-22T09:04:46;7.70;;;7.00;;
3757;SDS011;1894;51.038;13.692;2023-06-22T09:07:15;7.77;;;7.07;;
3757;SDS011;1894;51.038;13.692;2023-06-22T09:09:49;9.00;;;8.10;;
3757;SDS011;1894;51.038;13.692;2023-06-22T09:12:16;8.07;;;7.47;;
3757;SDS011;1894;51.038;13.692;2023-06-22T09:14:49;7.30;;;6.60;;
3757;SDS011;1894;51.038;13.692;2023-06-22T09:17:16;14.00;;;7.30;;
3757;SDS011;1894;51.038;13.692;2023-06-22T09:19:48;9.30;;;8.10;;
3757;SDS011;1894;51.038;13.692;2023-06-22T09:22:15;8.00;;;7.20;;
3757;SDS011;1894;51.038;13.692;2023-06-22T09:24:42;8.20;;;7.40;;
3757;SDS011;1894;51.038;13.692;2023-06-22T09:27:09;9.03;;;8.23;;
3757;SDS011;1894;51.038;13.692;2023-06-22T09:29:36;8.03;;;7.43;;
3757;SDS011;1894;51.038;13.692;2023-06-22T09:32:04;9.10;;;8.30;;
3757;SDS011;1894;51.038;13.692;2023-06-22T09:34:31;9.23;;;8.43;;
3757;SDS011;1894;51.038;13.692;2023-06-22T09:36:58;9.00;;;8.17;;
3757;SDS011;1894;51.038;13.692;2023-06-22T09:39:27;9.27;;;8.47;;
3757;SDS011;1894;51.038;13.692;2023-06-22T09:41:54;8.20;;;7.40;;
3757;SDS011;1894;51.038;13.692;2023-06-22T09:44:21;8.27;;;7.47;;
3757;SDS011;1894;51.038;13.692;2023-06-22T09:46:48;11.70;;;7.60;;
3757;SDS011;1894;51.038;13.692;2023-06-22T09:49:16;9.53;;;7.60;;
3757;SDS011;1894;51.038;13.692;2023-06-22T09:51:43;13.23;;;8.63;;
3757;SDS011;1894;51.038;13.692;2023-06-22T09:54:10;8.07;;;7.17;;
3757;SDS011;1894;51.038;13.692;2023-06-22T09:56:37;9.93;;;8.13;;
3757;SDS011;1894;51.038;13.692;2023-06-22T09:59:04;7.17;;;6.57;;
3757;SDS011;1894;51.038;13.692;2023-06-22T10:01:44;7.93;;;7.13;;
3757;SDS011;1894;51.038;13.692;2023-06-22T10:04:11;8.20;;;7.50;;
3757;SDS011;1894;51.038;13.692;2023-06-22T10:06:38;8.40;;;7.67;;
3757;SDS011;1894;51.038;13.692;2023-06-22T10:09:07;8.30;;;7.60;;
3757;SDS011;1894;51.038;13.692;2023-06-22T10:11:36;7.47;;;6.77;;
3757;SDS011;1894;51.038;13.692;2023-06-22T10:14:03;7.70;;;7.00;;
3757;SDS011;1894;51.038;13.692;2023-06-22T10:16:37;7.90;;;7.10;;
3757;SDS011;1894;51.038;13.692;2023-06-22T10:19:04;6.83;;;6.33;;
3757;SDS011;1894;51.038;13.692;2023-06-22T10:21:32;8.37;;;7.57;;
3757;SDS011;1894;51.038;13.692;2023-06-22T10:24:00;7.93;;;7.30;;
3757;SDS011;1894;51.038;13.692;2023-06-22T10:26:33;8.50;;;6.97;;
3757;SDS011;1894;51.038;13.692;2023-06-22T10:29:00;7.80;;;7.13;;
3757;SDS011;1894;51.038;13.692;2023-06-22T10:31:42;8.17;;;7.40;;
3757;SDS011;1894;51.038;13.692;2023-06-22T10:34:10;8.90;;;8.00;;
3757;SDS011;1894;51.038;13.692;2023-06-22T10:36:37;10.10;;;7.10;;
3757;SDS011;1894;51.038;13.692;2023-06-22T10:39:04;7.80;;;7.20;;
3757;SDS011;1894;51.038;13.692;2023-06-22T10:41:32;10.63;;;7.80;;
3757;SDS011;1894;51.038;13.692;2023-06-22T10:43:59;11.67;;;7.33;;
3757;SDS011;1894;51.038;13.692;2023-06-22T10:46:26;12.30;;;7.60;;
3757;SDS011;1894;51.038;13.692;2023-06-22T10:48:54;7.57;;;6.83;;
3757;SDS011;1894;51.038;13.692;2023-06-22T10:51:23;8.83;;;7.53;;
3757;SDS011;1894;51.038;13.692;2023-06-22T10:53:51;7.80;;;7.00;;
3757;SDS011;1894;51.038;13.692;2023-06-22T10:56:18;11.67;;;7.57;;
3757;SDS011;1894;51.038;13.692;2023-06-22T10:58:46;7.30;;;6.70;;
3757;SDS011;1894;51.038;13.692;2023-06-22T11:01:13;8.90;;;7.60;;
3757;SDS011;1894;51.038;13.692;2023-06-22T11:04:00;7.70;;;6.97;;
3757;SDS011;1894;51.038;13.692;2023-06-22T11:06:28;8.20;;;7.50;;
3757;SDS011;1894;51.038;13.692;2023-06-22T11:08:55;8.80;;;7.87;;
3757;SDS011;1894;51.038;13.692;2023-06-22T11:11:37;7.73;;;7.03;;
3757;SDS011;1894;51.038;13.692;2023-06-22T11:14:08;8.10;;;7.40;;
3757;SDS011;1894;51.038;13.692;2023-06-22T11:16:35;7.60;;;7.00;;
3757;SDS011;1894;51.038;13.692;2023-06-22T11:19:11;7.40;;;6.70;;
3757;SDS011;1894;51.038;13.692;2023-06-22T11:21:39;7.83;;;7.03;;
3757;SDS011;1894;51.038;13.692;2023-06-22T11:24:06;7.33;;;6.83;;
3757;SDS011;1894;51.038;13.692;2023-06-22T11:26:34;8.30;;;7.40;;
3757;SDS011;1894;51.038;13.692;2023-06-22T11:29:01;7.43;;;6.60;;
3757;SDS011;1894;51.038;13.692;2023-06-22T11:31:35;7.77;;;7.17;;
3757;SDS011;1894;51.038;13.692;2023-06-22T11:34:02;6.93;;;6.37;;
3757;SDS011;1894;51.038;13.692;2023-06-22T11:36:29;7.23;;;6.53;;
3757;SDS011;1894;51.038;13.692;2023-06-22T11:38:59;7.90;;;7.40;;
3757;SDS011;1894;51.038;13.692;2023-06-22T11:41:27;7.10;;;6.50;;
3757;SDS011;1894;51.038;13.692;2023-06-22T11:43:54;8.17;;;7.40;;
3757;SDS011;1894;51.038;13.692;2023-06-22T11:46:21;9.27;;;6.80;;
3757;SDS011;1894;51.038;13.692;2023-06-22T11:48:48;10.60;;;7.40;;
3757;SDS011;1894;51.038;13.692;2023-06-22T11:51:16;7.17;;;6.57;;
3757;SDS011;1894;51.038;13.692;2023-06-22T11:53:46;7.93;;;7.20;;
3757;SDS011;1894;51.038;13.692;2023-06-22T11:56:16;11.00;;;7.37;;
3757;SDS011;1894;51.038;13.692;2023-06-22T11:58:43;6.80;;;6.23;;
3757;SDS011;1894;51.038;13.692;2023-06-22T12:01:11;6.40;;;5.90;;
3757;SDS011;1894;51.038;13.692;2023-06-22T12:03:41;7.13;;;6.57;;
3757;SDS011;1894;51.038;13.692;2023-06-22T12:06:11;7.03;;;6.33;;
3757;SDS011;1894;51.038;13.692;2023-06-22T12:08:38;6.27;;;5.87;;
3757;SDS011;1894;51.038;13.692;2023-06-22T12:11:08;5.77;;;5.37;;
3757;SDS011;1894;51.038;13.692;2023-06-22T12:13:38;5.57;;;5.17;;
3757;SDS011;1894;51.038;13.692;2023-06-22T12:16:05;5.97;;;5.40;;
3757;SDS011;1894;51.038;13.692;2023-06-22T12:18:38;5.83;;;4.77;;
3757;SDS011;1894;51.038;13.692;2023-06-22T12:21:06;6.03;;;5.53;;
3757;SDS011;1894;51.038;13.692;2023-06-22T12:23:36;5.13;;;4.83;;
3757;SDS011;1894;51.038;13.692;2023-06-22T12:26:03;5.23;;;4.73;;
3757;SDS011;1894;51.038;13.692;2023-06-22T12:28:31;5.97;;;5.47;;
3757;SDS011;1894;51.038;13.692;2023-06-22T12:30:58;4.13;;;3.93;;
3757;SDS011;1894;51.038;13.692;2023-06-22T12:33:25;4.90;;;4.50;;
3757;SDS011;1894;51.038;13.692;2023-06-22T12:35:52;4.30;;;4.00;;
3757;SDS011;1894;51.038;13.692;2023-06-22T12:38:19;4.50;;;4.10;;
3757;SDS011;1894;51.038;13.692;2023-06-22T12:40:46;4.20;;;4.00;;
3757;SDS011;1894;51.038;13.692;2023-06-22T12:43:15;4.60;;;4.30;;
3757;SDS011;1894;51.038;13.692;2023-06-22T12:45:42;4.70;;;4.43;;
3757;SDS011;1894;51.038;13.692;2023-06-22T12:48:10;3.63;;;3.43;;
3757;SDS011;1894;51.038;13.692;2023-06-22T12:50:37;3.63;;;3.43;;
3757;SDS011;1894;51.038;13.692;2023-06-22T12:53:04;4.20;;;3.80;;
3757;SDS011;1894;51.038;13.692;2023-06-22T12:55:32;6.43;;;3.97;;
3757;SDS011;1894;51.038;13.692;2023-06-22T12:57:59;3.83;;;3.53;;
3757;SDS011;1894;51.038;13.692;2023-06-22T13:00:26;5.60;;;3.43;;
3757;SDS011;1894;51.038;13.692;2023-06-22T13:02:54;4.07;;;3.70;;
3757;SDS011;1894;51.038;13.692;2023-06-22T13:05:22;6.73;;;4.07;;
3757;SDS011;1894;51.038;13.692;2023-06-22T13:07:49;4.37;;;3.90;;
3757;SDS011;1894;51.038;13.692;2023-06-22T13:10:17;3.90;;;3.67;;
3757;SDS011;1894;51.038;13.692;2023-06-22T13:12:44;3.43;;;3.23;;
3757;SDS011;1894;51.038;13.692;2023-06-22T13:15:11;4.10;;;3.90;;
3757;SDS011;1894;51.038;13.692;2023-06-22T13:17:39;3.67;;;3.47;;
3757;SDS011;1894;51.038;13.692;2023-06-22T13:20:06;3.53;;;3.23;;
3757;SDS011;1894;51.038;13.692;2023-06-22T13:22:34;3.40;;;3.20;;
3757;SDS011;1894;51.038;13.692;2023-06-22T13:25:10;4.50;;;3.70;;
3757;SDS011;1894;51.038;13.692;2023-06-22T13:27:42;7.77;;;3.67;;
3757;SDS011;1894;51.038;13.692;2023-06-22T13:30:09;4.27;;;4.07;;
3757;SDS011;1894;51.038;13.692;2023-06-22T13:32:40;3.33;;;3.23;;
3757;SDS011;1894;51.038;13.692;2023-06-22T13:35:09;3.53;;;3.33;;
3757;SDS011;1894;51.038;13.692;2023-06-22T13:37:36;4.40;;;4.00;;
3757;SDS011;1894;51.038;13.692;2023-06-22T13:40:07;6.40;;;3.53;;
3757;SDS011;1894;51.038;13.692;2023-06-22T13:42:34;3.63;;;3.43;;
3757;SDS011;1894;51.038;13.692;2023-06-22T13:45:02;3.37;;;3.27;;
3757;SDS011;1894;51.038;13.692;2023-06-22T13:47:29;3.07;;;2.97;;
3757;SDS011;1894;51.038;13.692;2023-06-22T13:49:57;3.10;;;3.00;;
3757;SDS011;1894;51.038;13.692;2023-06-22T13:52:24;4.10;;;2.80;;
3757;SDS011;1894;51.038;13.692;2023-06-22T13:54:52;3.23;;;3.03;;
3757;SDS011;1894;51.038;13.692;2023-06-22T13:57:19;4.03;;;3.20;;
3757;SDS011;1894;51.038;13.692;2023-06-22T13:59:46;3.67;;;3.57;;
3757;SDS011;1894;51.038;13.692;2023-06-22T14:02:13;3.50;;;3.23;;
3757;SDS011;1894;51.038;13.692;2023-06-22T14:04:40;3.37;;;3.27;;
3757;SDS011;1894;51.038;13.692;2023-06-22T14:07:07;3.50;;;3.20;;
3757;SDS011;1894;51.038;13.692;2023-06-22T14:09:35;4.07;;;3.70;;
3757;SDS011;1894;51.038;13.692;2023-06-22T14:12:05;6.80;;;3.13;;
3757;SDS011;1894;51.038;13.692;2023-06-22T14:14:33;6.10;;;3.53;;
3757;SDS011;1894;51.038;13.692;2023-06-22T14:17:00;3.87;;;3.23;;
3757;SDS011;1894;51.038;13.692;2023-06-22T14:19:27;5.10;;;4.80;;
3757;SDS011;1894;51.038;13.692;2023-06-22T14:21:55;3.90;;;3.60;;
3757;SDS011;1894;51.038;13.692;2023-06-22T14:24:23;3.57;;;3.37;;
3757;SDS011;1894;51.038;13.692;2023-06-22T14:26:54;3.70;;;3.40;;
3757;SDS011;1894;51.038;13.692;2023-06-22T14:29:22;3.97;;;3.57;;
3757;SDS011;1894;51.038;13.692;2023-06-22T14:31:49;3.90;;;3.70;;
3757;SDS011;1894;51.038;13.692;2023-06-22T14:34:16;6.13;;;4.20;;
3757;SDS011;1894;51.038;13.692;2023-06-22T14:36:43;4.07;;;3.80;;
3757;SDS011;1894;51.038;13.692;2023-06-22T14:39:11;5.97;;;3.73;;
3757;SDS011;1894;51.038;13.692;2023-06-22T14:41:38;9.87;;;4.30;;
3757;SDS011;1894;51.038;13.692;2023-06-22T14:44:05;4.97;;;4.70;;
3757;SDS011;1894;51.038;13.692;2023-06-22T14:46:32;3.80;;;3.70;;
3757;SDS011;1894;51.038;13.692;2023-06-22T14:48:59;4.00;;;3.70;;
3757;SDS011;1894;51.038;13.692;2023-06-22T14:51:26;4.67;;;4.20;;
3757;SDS011;1894;51.038;13.692;2023-06-22T14:53:53;3.73;;;3.43;;
3757;SDS011;1894;51.038;13.692;2023-06-22T14:56:20;4.00;;;3.70;;
3757;SDS011;1894;51.038;13.692;2023-06-22T14:58:48;3.90;;;3.60;;
3757;SDS011;1894;51.038;13.692;2023-06-22T15:01:21;3.83;;;3.50;;
3757;SDS011;1894;51.038;13.692;2023-06-22T15:03:49;3.83;;;3.20;;
3757;SDS011;1894;51.038;13.692;2023-06-22T15:06:16;3.30;;;3.20;;